Cape Express — HO5337 — position and weather

sailwx.info

Track history (hours):
 
Tides and Currents Weather Stations Pressure Air Temp Water Temp Dewpoint Dewpoint Depression Visibility Wind Speed Wind Dir Waves Ship Positions

Cape Express

Last reported at 2014-Aug-21 20:11 UTC. Time now 2014-Aug-27 21:14 UTC.
Position N 25°53' W 079°16'.

Length 29 m; draft 2.2 m.

Type: Cargo ship. MMSI: 370269000.

Date/timePositionNaut miles runAvg speedWind from/ knotsBaromVisibWave heightAir tempDewpointWater temp
2014-Aug-21 20:11N 25°53' W 079°16'610.0
2014-Aug-21 19:33N 25°54' W 079°22'10 9.5
2014-Aug-21 18:33N 25°57' W 079°33'9 9.0
2014-Aug-21 17:33N 25°59' W 079°42'8 8.2
2014-Aug-21 16:33N 26°02' W 079°51'8 8.2
2014-Aug-21 15:33N 26°04' W 079°60'7 6.6
2014-Aug-21 14:33N 26°04' W 080°07'1 0.7
2014-Aug-21 13:33N 26°04' W 080°08'0 0.0
2014-Aug-21 12:33N 26°04' W 080°08'0 0.0
2014-Aug-21 11:33N 26°04' W 080°08'0 0.1
2014-Aug-21 10:33N 26°04' W 080°08'0 0.0
2014-Aug-21 09:33N 26°04' W 080°08'0 0.0
2014-Aug-21 08:33N 26°04' W 080°08'0 0.0
2014-Aug-21 07:33N 26°04' W 080°08'0 0.0
2014-Aug-21 06:33N 26°04' W 080°08'0 0.0
2014-Aug-21 05:33N 26°04' W 080°08'0 0.0
2014-Aug-21 04:33N 26°04' W 080°08'0 0.0
2014-Aug-21 03:33N 26°04' W 080°08'0 0.0
2014-Aug-21 02:33N 26°04' W 080°08'0 0.1
2014-Aug-21 01:33N 26°04' W 080°08'3 2.7
2014-Aug-21 00:33N 26°05' W 080°05'0 0.3
2014-Aug-20 23:33N 26°05' W 080°05'0 0.0
2014-Aug-20 22:33N 26°05' W 080°05'0 0.2
2014-Aug-20 21:33N 26°05' W 080°05'2 1.7
2014-Aug-20 20:33N 26°04' W 080°07'4 3.9
2014-Aug-20 19:33N 26°05' W 080°03'10 9.9
2014-Aug-20 18:33N 26°02' W 079°52'1010.1
2014-Aug-20 17:33N 25°59' W 079°41'10 9.8
2014-Aug-20 16:33N 25°57' W 079°31'  
Track history (hours):
 
Tides and Currents Weather Stations Pressure Air Temp Water Temp Dewpoint Dewpoint Depression Visibility Wind Speed Wind Dir Waves Ship Positions

Cape Express

Last reported at 2014-Aug-21 20:11 UTC. Time now 2014-Aug-27 21:14 UTC.
Position N 25°53' W 079°16'.

Length 29 m; draft 2.2 m.

Type: Cargo ship. MMSI: 370269000.

Date/timePositionNaut miles runAvg speedWind from/ knotsBaromVisibWave heightAir tempDewpointWater temp
2014-Aug-21 20:11N 25°53' W 079°16'610.0
2014-Aug-21 19:33N 25°54' W 079°22'10 9.5
2014-Aug-21 18:33N 25°57' W 079°33'9 9.0
2014-Aug-21 17:33N 25°59' W 079°42'8 8.2
2014-Aug-21 16:33N 26°02' W 079°51'8 8.2
2014-Aug-21 15:33N 26°04' W 079°60'7 6.6
2014-Aug-21 14:33N 26°04' W 080°07'1 0.7
2014-Aug-21 13:33N 26°04' W 080°08'0 0.0
2014-Aug-21 12:33N 26°04' W 080°08'0 0.0
2014-Aug-21 11:33N 26°04' W 080°08'0 0.1
2014-Aug-21 10:33N 26°04' W 080°08'0 0.0
2014-Aug-21 09:33N 26°04' W 080°08'0 0.0
2014-Aug-21 08:33N 26°04' W 080°08'0 0.0
2014-Aug-21 07:33N 26°04' W 080°08'0 0.0
2014-Aug-21 06:33N 26°04' W 080°08'0 0.0
2014-Aug-21 05:33N 26°04' W 080°08'0 0.0
2014-Aug-21 04:33N 26°04' W 080°08'0 0.0
2014-Aug-21 03:33N 26°04' W 080°08'0 0.0
2014-Aug-21 02:33N 26°04' W 080°08'0 0.1
2014-Aug-21 01:33N 26°04' W 080°08'3 2.7
2014-Aug-21 00:33N 26°05' W 080°05'0 0.3
2014-Aug-20 23:33N 26°05' W 080°05'0 0.0
2014-Aug-20 22:33N 26°05' W 080°05'0 0.2
2014-Aug-20 21:33N 26°05' W 080°05'2 1.7
2014-Aug-20 20:33N 26°04' W 080°07'4 3.9
2014-Aug-20 19:33N 26°05' W 080°03'10 9.9
2014-Aug-20 18:33N 26°02' W 079°52'1010.1
2014-Aug-20 17:33N 25°59' W 079°41'10 9.8
2014-Aug-20 16:33N 25°57' W 079°31'  

Dump ship's entire track history